createdAt,value
2023-05-26T00:00:25.532Z,6.55
2023-05-26T00:02:52.893Z,5.43
2023-05-26T00:05:21.460Z,5.60
2023-05-26T00:07:49.006Z,6.45
2023-05-26T00:10:16.226Z,5.13
2023-05-26T00:12:43.444Z,5.78
2023-05-26T00:15:10.900Z,5.18
2023-05-26T00:17:38.291Z,6.10
2023-05-26T00:20:08.770Z,6.50
2023-05-26T00:22:36.337Z,5.43
2023-05-26T00:25:04.470Z,5.75
2023-05-26T00:27:31.822Z,6.25
2023-05-26T00:29:59.338Z,6.38
2023-05-26T00:32:26.953Z,6.18
2023-05-26T00:34:54.262Z,6.10
2023-05-26T00:37:23.429Z,5.85
2023-05-26T00:39:50.638Z,5.88
2023-05-26T00:42:18.577Z,6.00
2023-05-26T00:44:45.756Z,5.95
2023-05-26T00:47:12.984Z,6.03
2023-05-26T00:49:40.268Z,5.43
2023-05-26T00:52:08.196Z,6.32
2023-05-26T00:54:36.267Z,6.15
2023-05-26T00:57:04.763Z,6.30
2023-05-26T00:59:32.448Z,7.15
2023-05-26T01:02:01.090Z,5.85
2023-05-26T01:04:28.263Z,6.65
2023-05-26T01:06:56.481Z,6.05
2023-05-26T01:09:24.080Z,6.25
2023-05-26T01:11:54.210Z,6.03
2023-05-26T01:14:32.257Z,6.78
2023-05-26T01:17:08.568Z,6.03
2023-05-26T01:19:53.386Z,6.72
2023-05-26T01:22:23.867Z,6.45
2023-05-26T01:25:07.665Z,7.30
2023-05-26T01:28:04.029Z,6.28
2023-05-26T01:30:32.623Z,7.97
2023-05-26T01:32:59.906Z,5.93
2023-05-26T01:35:27.210Z,6.13
2023-05-26T01:37:55.160Z,7.03
2023-05-26T01:40:22.966Z,6.75
2023-05-26T01:43:03.194Z,6.57
2023-05-26T01:45:43.284Z,7.10
2023-05-26T01:48:11.293Z,7.55
2023-05-26T01:50:48.782Z,7.45
2023-05-26T01:53:19.317Z,6.07
2023-05-26T01:55:47.315Z,7.22
2023-05-26T01:58:15.330Z,6.70
2023-05-26T02:00:48.907Z,6.20
2023-05-26T02:03:16.911Z,5.90
2023-05-26T02:05:44.654Z,6.07
2023-05-26T02:08:12.509Z,8.27
2023-05-26T02:10:40.422Z,6.50
2023-05-26T02:13:08.003Z,6.95
2023-05-26T02:15:35.581Z,7.45
2023-05-26T02:18:04.188Z,8.13
2023-05-26T02:20:31.808Z,6.57
2023-05-26T02:22:59.059Z,6.53
2023-05-26T02:25:26.260Z,6.43
2023-05-26T02:27:53.525Z,5.93
2023-05-26T02:30:21.262Z,7.22
2023-05-26T02:32:48.737Z,6.32
2023-05-26T02:35:15.953Z,6.28
2023-05-26T02:37:43.197Z,7.28
2023-05-26T02:40:11.124Z,6.65
2023-05-26T02:42:38.372Z,6.93
2023-05-26T02:45:06.190Z,7.15
2023-05-26T02:47:33.430Z,6.80
2023-05-26T02:50:00.717Z,6.85
2023-05-26T02:52:28.326Z,7.85
2023-05-26T02:54:55.593Z,6.97
2023-05-26T02:57:23.454Z,5.93
2023-05-26T02:59:50.586Z,7.30
2023-05-26T03:02:17.844Z,6.35
2023-05-26T03:04:45.026Z,6.05
2023-05-26T03:07:12.198Z,6.53
2023-05-26T03:09:39.428Z,7.20
2023-05-26T03:12:08.040Z,7.53
2023-05-26T03:14:35.429Z,6.28
2023-05-26T03:17:02.826Z,6.47
2023-05-26T03:19:30.151Z,8.40
2023-05-26T03:22:37.598Z,7.18
2023-05-26T03:24:44.732Z,8.10
2023-05-26T03:27:11.898Z,7.57
2023-05-26T03:29:39.061Z,6.15
2023-05-26T03:32:06.406Z,6.97
2023-05-26T03:34:34.205Z,7.30
2023-05-26T03:37:02.079Z,6.82
2023-05-26T03:39:29.238Z,6.70
2023-05-26T03:41:56.492Z,7.93
2023-05-26T03:44:24.321Z,7.78
2023-05-26T03:46:51.629Z,7.38
2023-05-26T03:49:20.925Z,7.10
2023-05-26T03:51:48.205Z,7.72
2023-05-26T03:54:15.351Z,6.25
2023-05-26T03:56:42.591Z,7.90
2023-05-26T03:59:10.117Z,7.85
2023-05-26T04:01:38.274Z,7.10
2023-05-26T04:04:05.700Z,7.40
2023-05-26T04:06:32.982Z,8.25
2023-05-26T04:09:01.695Z,7.72
2023-05-26T04:11:28.959Z,7.15
2023-05-26T04:13:56.270Z,7.47
2023-05-26T04:16:23.505Z,7.10
2023-05-26T04:18:50.858Z,7.00
2023-05-26T04:21:18.058Z,8.32
2023-05-26T04:23:48.491Z,7.30
2023-05-26T04:26:17.383Z,7.40
2023-05-26T04:28:45.243Z,6.88
2023-05-26T04:31:17.886Z,6.95
2023-05-26T04:33:46.074Z,8.35
2023-05-26T04:36:17.560Z,6.75
2023-05-26T04:38:48.941Z,7.68
2023-05-26T04:41:16.464Z,7.15
2023-05-26T04:43:44.571Z,7.85
2023-05-26T04:46:12.471Z,7.78
2023-05-26T04:48:59.777Z,7.00
2023-05-26T04:51:27.293Z,7.88
2023-05-26T04:53:54.413Z,7.28
2023-05-26T04:56:22.861Z,7.90
2023-05-26T04:58:50.082Z,6.70
2023-05-26T05:01:18.738Z,7.72
2023-05-26T05:03:46.165Z,7.35
2023-05-26T05:06:13.430Z,6.22
2023-05-26T05:08:40.576Z,7.97
2023-05-26T05:11:08.656Z,6.97
2023-05-26T05:13:35.832Z,6.80
2023-05-26T05:16:03.091Z,6.82
2023-05-26T05:18:30.263Z,6.20
2023-05-26T05:20:57.682Z,6.57
2023-05-26T05:23:25.141Z,7.35
2023-05-26T05:25:53.813Z,7.05
2023-05-26T05:28:20.965Z,7.60
2023-05-26T05:30:48.345Z,7.95
2023-05-26T05:33:15.870Z,6.45
2023-05-26T05:35:43.306Z,7.18
2023-05-26T05:38:10.687Z,6.90
2023-05-26T05:40:37.952Z,6.95
2023-05-26T05:43:05.458Z,6.95
2023-05-26T05:45:32.817Z,7.18
2023-05-26T05:48:00.218Z,9.60
2023-05-26T05:50:27.452Z,9.98
2023-05-26T05:52:54.632Z,7.97
2023-05-26T05:55:21.845Z,7.63
2023-05-26T05:57:49.767Z,7.72
2023-05-26T06:00:17.380Z,8.95
2023-05-26T06:02:44.703Z,8.07
2023-05-26T06:05:14.314Z,9.05
2023-05-26T06:07:41.497Z,7.60
2023-05-26T06:10:09.284Z,7.15
2023-05-26T06:12:36.462Z,6.43
2023-05-26T06:15:03.824Z,7.57
2023-05-26T06:17:31.626Z,9.05
2023-05-26T06:19:59.048Z,7.47
2023-05-26T06:22:26.214Z,6.72
2023-05-26T06:24:53.407Z,7.10
2023-05-26T06:27:20.564Z,6.95
2023-05-26T06:29:47.771Z,7.78
2023-05-26T06:32:15.040Z,6.15
2023-05-26T06:34:42.222Z,7.15
2023-05-26T06:37:09.489Z,6.68
2023-05-26T06:39:36.651Z,7.03
2023-05-26T06:42:04.110Z,8.30
2023-05-26T06:44:31.279Z,7.00
2023-05-26T06:46:58.469Z,6.60
2023-05-26T06:49:25.596Z,8.02
2023-05-26T06:51:52.866Z,6.32
2023-05-26T06:54:19.996Z,5.05
2023-05-26T06:56:47.179Z,7.07
2023-05-26T06:59:14.326Z,7.50
2023-05-26T07:01:41.645Z,6.75
2023-05-26T07:04:08.964Z,5.82
2023-05-26T07:06:46.761Z,6.32
2023-05-26T07:09:14.876Z,6.65
2023-05-26T07:11:42.085Z,7.50
2023-05-26T07:14:09.354Z,6.72
2023-05-26T07:16:36.559Z,5.72
2023-05-26T07:19:03.777Z,5.70
2023-05-26T07:21:32.154Z,6.78
2023-05-26T07:23:59.590Z,6.85
2023-05-26T07:26:26.749Z,5.63
2023-05-26T07:28:54.400Z,6.65
2023-05-26T07:31:22.546Z,6.30
2023-05-26T07:33:51.173Z,6.43
2023-05-26T07:36:18.463Z,5.97
2023-05-26T07:38:45.886Z,5.93
2023-05-26T07:41:13.074Z,5.97
2023-05-26T07:43:40.367Z,6.55
2023-05-26T07:46:07.595Z,5.35
2023-05-26T07:48:34.899Z,6.05
2023-05-26T07:51:02.032Z,5.90
2023-05-26T07:53:29.181Z,5.03
2023-05-26T07:55:56.339Z,5.63
2023-05-26T07:58:23.464Z,5.32
2023-05-26T08:00:50.609Z,5.90
2023-05-26T08:03:18.020Z,4.85
2023-05-26T08:05:45.736Z,6.32
2023-05-26T08:08:13.062Z,5.65
2023-05-26T08:10:40.329Z,4.93
2023-05-26T08:13:07.500Z,5.57
2023-05-26T08:15:35.657Z,5.68
2023-05-26T08:18:03.156Z,5.55
2023-05-26T08:20:30.542Z,6.65
2023-05-26T08:22:59.506Z,6.93
2023-05-26T08:25:27.389Z,5.95
2023-05-26T08:27:54.627Z,4.70
2023-05-26T08:30:21.780Z,5.18
2023-05-26T08:32:49.253Z,4.97
2023-05-26T08:35:16.402Z,5.15
2023-05-26T08:37:43.822Z,4.88
2023-05-26T08:40:12.834Z,4.63
2023-05-26T08:42:45.741Z,5.32
2023-05-26T08:45:13.771Z,4.90
2023-05-26T08:47:43.790Z,4.68
2023-05-26T08:50:12.186Z,4.93
2023-05-26T08:52:45.617Z,4.93
2023-05-26T08:55:18.266Z,5.82
2023-05-26T08:57:45.930Z,5.15
2023-05-26T09:00:13.972Z,5.60
2023-05-26T09:02:41.434Z,5.80
2023-05-26T09:05:09.518Z,5.07
2023-05-26T09:07:36.734Z,5.57
2023-05-26T09:10:22.799Z,4.55
2023-05-26T09:12:49.959Z,5.25
2023-05-26T09:15:21.431Z,4.97
2023-05-26T09:17:49.549Z,4.72
2023-05-26T09:20:16.963Z,5.88
2023-05-26T09:22:45.523Z,4.80
2023-05-26T09:25:12.796Z,5.40
2023-05-26T09:27:39.946Z,5.03
2023-05-26T09:30:07.795Z,4.22
2023-05-26T09:32:36.052Z,4.07
2023-05-26T09:35:04.416Z,4.78
2023-05-26T09:37:33.250Z,4.63
2023-05-26T09:40:15.710Z,3.90
2023-05-26T09:42:53.068Z,4.22
2023-05-26T09:45:20.651Z,4.75
2023-05-26T09:47:56.513Z,4.50
2023-05-26T09:50:25.333Z,4.38
2023-05-26T09:52:52.537Z,4.47
2023-05-26T09:55:19.849Z,4.57
2023-05-26T09:57:47.478Z,5.30
2023-05-26T10:00:17.434Z,4.88
2023-05-26T10:02:46.522Z,4.22
2023-05-26T10:05:15.034Z,4.55
2023-05-26T10:07:43.189Z,4.55
2023-05-26T10:10:14.773Z,4.15
2023-05-26T10:12:43.234Z,4.50
2023-05-26T10:15:11.211Z,4.35
2023-05-26T10:17:40.345Z,4.45
2023-05-26T10:20:09.776Z,4.50
2023-05-26T10:22:51.698Z,4.65
2023-05-26T10:25:27.376Z,4.25
2023-05-26T10:28:00.308Z,3.40
2023-05-26T10:30:28.118Z,4.35
2023-05-26T10:33:09.521Z,4.20
2023-05-26T10:35:36.946Z,4.35
2023-05-26T10:38:04.131Z,4.03
2023-05-26T10:40:31.292Z,5.35
2023-05-26T10:43:03.569Z,4.93
2023-05-26T10:45:32.645Z,3.70
2023-05-26T10:48:12.460Z,4.18
2023-05-26T10:50:59.377Z,3.63
2023-05-26T10:53:31.370Z,3.65
2023-05-26T10:56:00.276Z,4.47
2023-05-26T10:58:34.560Z,4.18
2023-05-26T11:01:04.308Z,4.47
2023-05-26T11:03:45.553Z,4.28
2023-05-26T11:06:15.400Z,3.85
2023-05-26T11:08:46.391Z,4.20
2023-05-26T11:11:18.362Z,4.35
2023-05-26T11:13:47.683Z,4.05
2023-05-26T11:16:18.792Z,3.67
2023-05-26T11:18:53.904Z,4.35
2023-05-26T11:21:28.276Z,4.05
2023-05-26T11:23:57.462Z,3.78
2023-05-26T11:26:26.468Z,2.78
2023-05-26T11:28:54.061Z,3.60
2023-05-26T11:31:26.880Z,3.58
2023-05-26T11:33:55.705Z,3.08
2023-05-26T11:36:23.431Z,3.60
2023-05-26T11:38:57.880Z,3.05
2023-05-26T11:41:28.497Z,3.65
2023-05-26T11:43:57.342Z,2.90
2023-05-26T11:46:28.590Z,2.67
2023-05-26T11:48:56.043Z,4.45
2023-05-26T11:51:23.303Z,2.78
2023-05-26T11:53:57.665Z,3.55
2023-05-26T11:56:36.541Z,3.22
2023-05-26T11:59:05.064Z,3.47
2023-05-26T12:01:33.589Z,4.38
2023-05-26T12:04:01.955Z,3.60
2023-05-26T12:06:30.714Z,2.75
2023-05-26T12:09:05.119Z,3.15
2023-05-26T12:11:34.323Z,3.78
2023-05-26T12:14:12.464Z,2.83
2023-05-26T12:16:43.266Z,3.25
2023-05-26T12:19:12.504Z,2.70
2023-05-26T12:21:42.065Z,3.47
2023-05-26T12:24:09.813Z,3.22
2023-05-26T12:26:37.342Z,3.40
2023-05-26T12:29:08.172Z,3.22
2023-05-26T12:31:39.210Z,3.35
2023-05-26T12:34:07.650Z,2.47
2023-05-26T12:36:35.194Z,3.15
2023-05-26T12:39:02.426Z,3.05
2023-05-26T12:41:29.689Z,2.78
2023-05-26T12:43:56.835Z,3.30
2023-05-26T12:46:25.396Z,3.00
2023-05-26T12:48:53.898Z,3.58
2023-05-26T12:51:22.156Z,2.88
2023-05-26T12:53:49.386Z,2.63
2023-05-26T12:56:17.325Z,2.47
2023-05-26T12:58:44.644Z,3.33
2023-05-26T13:01:12.475Z,3.50
2023-05-26T13:03:41.888Z,3.42
2023-05-26T13:06:10.090Z,2.85
2023-05-26T13:08:37.399Z,2.20
2023-05-26T13:11:04.647Z,2.90
2023-05-26T13:13:32.278Z,3.17
2023-05-26T13:16:03.020Z,3.03
2023-05-26T13:21:01.232Z,2.88
2023-05-26T13:23:28.384Z,3.67
2023-05-26T13:25:55.610Z,3.40
2023-05-26T13:28:23.928Z,3.38
2023-05-26T13:30:51.166Z,2.95
2023-05-26T13:33:18.429Z,3.05
2023-05-26T13:35:45.752Z,3.17
2023-05-26T13:38:12.946Z,2.83
2023-05-26T13:40:40.958Z,3.83
2023-05-26T13:43:09.487Z,3.30
2023-05-26T13:45:37.080Z,3.80
2023-05-26T13:48:05.478Z,4.15
2023-05-26T13:50:32.742Z,3.65
2023-05-26T13:52:59.865Z,3.80
2023-05-26T13:55:27.350Z,3.20
2023-05-26T13:57:54.773Z,3.63
2023-05-26T14:00:22.008Z,3.40
2023-05-26T14:02:51.099Z,3.38
2023-05-26T14:05:19.876Z,3.25
2023-05-26T14:07:47.232Z,3.60
2023-05-26T14:10:15.910Z,3.42
2023-05-26T14:12:43.352Z,3.25
2023-05-26T14:15:11.210Z,3.42
2023-05-26T14:17:38.660Z,3.58
2023-05-26T14:20:08.009Z,3.80
2023-05-26T14:22:38.322Z,3.38
2023-05-26T14:25:06.140Z,4.47
2023-05-26T14:27:33.461Z,3.35
2023-05-26T14:30:00.757Z,3.00
2023-05-26T14:32:27.962Z,4.13
2023-05-26T14:34:55.264Z,3.05
2023-05-26T14:37:22.560Z,3.28
2023-05-26T14:39:49.742Z,3.65
2023-05-26T14:42:17.076Z,4.68
2023-05-26T14:44:44.261Z,4.95
2023-05-26T14:47:11.549Z,5.20
2023-05-26T14:49:38.708Z,5.50
2023-05-26T14:52:06.464Z,5.63
2023-05-26T14:54:33.800Z,6.00
2023-05-26T14:57:01.609Z,6.80
2023-05-26T14:59:28.918Z,7.57
2023-05-26T15:01:56.214Z,6.60
2023-05-26T15:04:23.464Z,8.57
2023-05-26T15:06:51.472Z,9.18
2023-05-26T15:09:18.672Z,9.38
2023-05-26T15:11:46.061Z,10.90
2023-05-26T15:14:13.297Z,10.82
2023-05-26T15:16:40.635Z,11.85
2023-05-26T15:19:07.964Z,11.88
2023-05-26T15:21:38.723Z,13.57
2023-05-26T15:24:08.035Z,14.18
2023-05-26T15:26:35.894Z,14.98
2023-05-26T15:29:03.149Z,14.85
2023-05-26T15:31:30.463Z,15.20
2023-05-26T15:33:57.711Z,15.98
2023-05-26T15:36:25.963Z,16.48
2023-05-26T15:38:57.839Z,15.95
2023-05-26T15:41:29.048Z,16.55
2023-05-26T15:43:57.045Z,15.20
2023-05-26T15:46:24.233Z,15.25
2023-05-26T15:48:51.568Z,14.38
2023-05-26T15:51:18.782Z,14.13
2023-05-26T15:53:46.029Z,13.50
2023-05-26T15:56:13.242Z,12.65
2023-05-26T15:58:40.827Z,12.82
2023-05-26T16:01:08.481Z,12.10
2023-05-26T16:03:39.121Z,11.32
2023-05-26T16:06:08.112Z,10.48
2023-05-26T16:08:37.779Z,10.10
2023-05-26T16:11:05.237Z,9.63
2023-05-26T16:13:33.530Z,8.68
2023-05-26T16:16:00.785Z,8.32
2023-05-26T16:18:28.081Z,9.60
2023-05-26T16:20:55.386Z,8.52
2023-05-26T16:23:22.921Z,8.50
2023-05-26T16:25:52.725Z,8.25
2023-05-26T16:28:20.796Z,7.13
2023-05-26T16:30:48.420Z,5.93
2023-05-26T16:33:17.394Z,5.60
2023-05-26T16:35:47.156Z,5.25
2023-05-26T16:38:14.391Z,4.88
2023-05-26T16:40:41.619Z,4.78
2023-05-26T16:43:11.676Z,4.38
2023-05-26T16:45:38.926Z,4.82
2023-05-26T16:48:06.278Z,5.25
2023-05-26T16:50:33.476Z,4.95
2023-05-26T16:53:00.716Z,4.63
2023-05-26T16:55:27.863Z,4.80
2023-05-26T16:57:55.068Z,4.78
2023-05-26T17:00:22.331Z,5.00
2023-05-26T17:02:49.607Z,5.40
2023-05-26T17:05:17.169Z,4.82
2023-05-26T17:07:44.468Z,4.35
2023-05-26T17:10:11.813Z,4.47
2023-05-26T17:12:39.121Z,4.35
2023-05-26T17:15:07.852Z,4.85
2023-05-26T17:17:35.217Z,3.90
2023-05-26T17:20:03.208Z,4.55
2023-05-26T17:22:30.798Z,4.13
2023-05-26T17:24:58.100Z,4.53
2023-05-26T17:27:25.412Z,3.67
2023-05-26T17:29:52.675Z,4.28
2023-05-26T17:32:20.009Z,4.20
2023-05-26T17:34:47.841Z,4.25
2023-05-26T17:37:15.297Z,3.55
2023-05-26T17:39:43.228Z,4.22
2023-05-26T17:42:10.841Z,4.22
2023-05-26T17:44:38.109Z,4.30
2023-05-26T17:47:06.023Z,3.53
2023-05-26T17:49:33.525Z,4.25
2023-05-26T17:52:00.997Z,4.18
2023-05-26T17:54:29.943Z,4.03
2023-05-26T17:56:57.934Z,4.18
2023-05-26T17:59:25.781Z,4.28
2023-05-26T18:01:53.368Z,4.05
2023-05-26T18:04:20.969Z,3.65
2023-05-26T18:06:48.307Z,4.10
2023-05-26T18:09:16.910Z,4.07
2023-05-26T18:11:45.213Z,4.32
2023-05-26T18:14:13.024Z,4.28
2023-05-26T18:16:40.997Z,4.50
2023-05-26T18:19:08.753Z,3.70
2023-05-26T18:21:39.190Z,4.68
2023-05-26T18:24:06.921Z,5.00
2023-05-26T18:26:34.424Z,5.43
2023-05-26T18:29:01.815Z,4.60
2023-05-26T18:31:30.038Z,4.68
2023-05-26T18:34:00.443Z,4.65
2023-05-26T18:36:32.752Z,4.35
2023-05-26T18:39:00.041Z,4.25
2023-05-26T18:41:27.636Z,4.88
2023-05-26T18:43:54.878Z,4.85
2023-05-26T18:46:22.300Z,4.30
2023-05-26T18:48:49.546Z,4.13
2023-05-26T18:51:17.771Z,4.82
2023-05-26T18:53:44.976Z,4.88
2023-05-26T18:56:12.838Z,4.38
2023-05-26T18:58:40.154Z,4.97
2023-05-26T19:01:07.500Z,4.32
2023-05-26T19:03:36.301Z,5.38
2023-05-26T19:06:03.666Z,4.25
2023-05-26T19:08:30.913Z,4.18
2023-05-26T19:10:59.496Z,4.78
2023-05-26T19:13:26.827Z,3.88
2023-05-26T19:15:54.170Z,5.18
2023-05-26T19:18:22.587Z,5.75
2023-05-26T19:20:50.168Z,4.25
2023-05-26T19:23:17.449Z,4.82
2023-05-26T19:25:44.650Z,5.43
2023-05-26T19:28:17.206Z,5.25
2023-05-26T19:30:46.029Z,5.28
2023-05-26T19:33:13.488Z,4.85
2023-05-26T19:35:40.711Z,4.90
2023-05-26T19:38:07.915Z,4.68
2023-05-26T19:40:36.413Z,5.05
2023-05-26T19:43:03.730Z,5.53
2023-05-26T19:45:31.192Z,4.63
2023-05-26T19:47:58.575Z,5.18
2023-05-26T19:50:25.999Z,4.30
2023-05-26T19:52:54.629Z,4.82
2023-05-26T19:55:22.837Z,4.97
2023-05-26T19:57:50.183Z,4.00
2023-05-26T20:00:17.535Z,4.18
2023-05-26T20:02:44.902Z,4.50
2023-05-26T20:05:12.174Z,5.00
2023-05-26T20:07:39.420Z,4.50
2023-05-26T20:10:06.818Z,20.30
2023-05-26T20:12:34.143Z,26.17
2023-05-26T20:15:01.737Z,7.72
2023-05-26T20:17:28.947Z,5.57
2023-05-26T20:20:11.651Z,5.32
2023-05-26T20:22:40.674Z,6.57
2023-05-26T20:25:08.482Z,5.20
2023-05-26T20:27:38.994Z,4.75
2023-05-26T20:30:07.746Z,4.65
2023-05-26T20:32:35.837Z,5.20
2023-05-26T20:35:03.814Z,6.55
2023-05-26T20:37:31.536Z,4.93
2023-05-26T20:39:59.797Z,4.85
2023-05-26T20:42:30.859Z,4.63
2023-05-26T20:44:58.184Z,5.45
2023-05-26T20:47:26.124Z,5.53
2023-05-26T20:49:53.589Z,5.80
2023-05-26T20:52:21.592Z,5.18
2023-05-26T20:54:48.799Z,5.10
2023-05-26T20:57:16.114Z,5.20
2023-05-26T20:59:43.534Z,5.55
2023-05-26T21:02:11.006Z,6.35
2023-05-26T21:04:38.304Z,5.28
2023-05-26T21:07:05.480Z,5.15
2023-05-26T21:09:32.965Z,5.07
2023-05-26T21:12:00.222Z,5.03
2023-05-26T21:14:27.801Z,5.43
2023-05-26T21:16:55.123Z,5.22
2023-05-26T21:19:22.446Z,5.95
2023-05-26T21:21:51.081Z,5.60
2023-05-26T21:24:18.518Z,4.68
2023-05-26T21:26:45.951Z,4.82
2023-05-26T21:29:13.386Z,5.32
2023-05-26T21:31:40.828Z,5.18
2023-05-26T21:34:08.180Z,4.97
2023-05-26T21:36:36.683Z,4.97
2023-05-26T21:39:05.124Z,5.25
2023-05-26T21:41:32.602Z,5.18
2023-05-26T21:43:59.825Z,4.65
2023-05-26T21:46:27.107Z,4.43
2023-05-26T21:48:54.597Z,4.38
2023-05-26T21:51:21.839Z,5.10
2023-05-26T21:53:49.075Z,5.15
2023-05-26T21:56:16.335Z,4.30
2023-05-26T21:58:44.838Z,5.57
2023-05-26T22:01:12.468Z,5.55
2023-05-26T22:03:39.860Z,4.07
2023-05-26T22:06:08.517Z,5.00
2023-05-26T22:08:35.793Z,4.35
2023-05-26T22:11:02.976Z,4.75
2023-05-26T22:13:30.798Z,4.30
2023-05-26T22:15:58.298Z,3.90
2023-05-26T22:18:26.019Z,3.95
2023-05-26T22:20:53.173Z,4.85
2023-05-26T22:23:20.370Z,5.18
2023-05-26T22:25:47.642Z,5.07
2023-05-26T22:28:14.949Z,4.70
2023-05-26T22:30:42.166Z,4.20
2023-05-26T22:33:09.401Z,3.88
2023-05-26T22:35:36.677Z,4.40
2023-05-26T22:38:03.911Z,4.57
2023-05-26T22:40:31.147Z,4.55
2023-05-26T22:42:58.301Z,4.60
2023-05-26T22:45:25.596Z,4.85
2023-05-26T22:47:52.814Z,4.53
2023-05-26T22:50:22.103Z,4.53
2023-05-26T22:52:49.306Z,4.28
2023-05-26T22:55:16.434Z,4.90
2023-05-26T22:57:43.757Z,5.20
2023-05-26T23:00:11.496Z,4.90
2023-05-26T23:02:38.798Z,4.65
2023-05-26T23:05:07.149Z,4.45
2023-05-26T23:07:35.930Z,4.63
2023-05-26T23:10:04.107Z,4.45
2023-05-26T23:12:31.246Z,5.13
2023-05-26T23:14:58.532Z,4.40
2023-05-26T23:17:25.792Z,4.38
2023-05-26T23:19:53.020Z,4.60
2023-05-26T23:22:20.266Z,4.65
2023-05-26T23:24:47.463Z,3.78
2023-05-26T23:27:14.650Z,4.28
2023-05-26T23:29:41.935Z,5.18
2023-05-26T23:32:09.163Z,4.07
2023-05-26T23:34:36.363Z,4.25
2023-05-26T23:37:03.618Z,4.18
2023-05-26T23:39:30.936Z,4.47
2023-05-26T23:41:58.089Z,4.82
2023-05-26T23:44:25.345Z,4.50
2023-05-26T23:46:52.603Z,5.10
2023-05-26T23:49:20.085Z,4.55
2023-05-26T23:51:47.254Z,4.88
2023-05-26T23:54:14.429Z,5.07
2023-05-26T23:56:41.607Z,4.35
2023-05-26T23:59:08.842Z,4.03
